createdAt,value
2023-01-21T00:02:34.214Z,99661.25
2023-01-21T00:07:37.150Z,99674.38
2023-01-21T00:12:40.103Z,99667.00
2023-01-21T00:17:44.343Z,99672.84
2023-01-21T00:22:47.286Z,99674.81
2023-01-21T00:27:50.136Z,99670.16
2023-01-21T00:32:54.693Z,99676.56
2023-01-21T00:37:57.722Z,99676.69
2023-01-21T00:43:00.641Z,99674.09
2023-01-21T00:48:05.419Z,99682.75
2023-01-21T00:53:08.285Z,99677.50
2023-01-21T00:58:11.205Z,99689.66
2023-01-21T01:03:15.623Z,99689.06
2023-01-21T01:08:18.560Z,99688.13
2023-01-21T01:13:21.486Z,99697.72
2023-01-21T01:18:26.859Z,99706.47
2023-01-21T01:23:30.078Z,99698.03
2023-01-21T01:28:33.986Z,99700.69
2023-01-21T01:33:38.318Z,99700.69
2023-01-21T01:38:41.501Z,99699.16
2023-01-21T01:43:54.101Z,99698.03
2023-01-21T01:49:04.176Z,99712.41
2023-01-21T01:54:08.570Z,99710.94
2023-01-21T01:59:12.362Z,99718.34
2023-01-21T02:04:21.926Z,99721.41
2023-01-21T02:09:29.750Z,99720.53
2023-01-21T02:14:34.097Z,99726.38
2023-01-21T02:20:30.289Z,99719.97
2023-01-21T02:25:56.788Z,99731.34
2023-01-21T02:31:21.380Z,99732.00
2023-01-21T02:36:36.559Z,99733.25
2023-01-21T02:41:49.367Z,99735.38
2023-01-21T02:46:56.833Z,99747.19
2023-01-21T02:52:01.106Z,99740.50
2023-01-21T02:57:04.520Z,99744.13
2023-01-21T03:02:20.200Z,99753.75
2023-01-21T03:07:32.575Z,99756.75
2023-01-21T03:12:41.951Z,99749.81
2023-01-21T03:17:50.076Z,99750.53
2023-01-21T03:23:00.452Z,99758.75
2023-01-21T03:28:07.656Z,99768.50
2023-01-21T03:33:12.615Z,99768.03
2023-01-21T03:38:22.888Z,99771.19
2023-01-21T03:43:26.141Z,99771.72
2023-01-21T03:48:37.312Z,99781.47
2023-01-21T03:53:41.667Z,99775.56
2023-01-21T03:58:44.612Z,99779.31
2023-01-21T04:03:47.604Z,99782.72
2023-01-21T04:08:52.028Z,99775.63
2023-01-21T04:13:54.887Z,99786.53
2023-01-21T04:18:58.178Z,99783.38
2023-01-21T04:24:02.581Z,99785.13
2023-01-21T04:29:05.525Z,99795.44
2023-01-21T04:34:08.519Z,99790.91
2023-01-21T04:39:12.809Z,99788.56
2023-01-21T04:44:15.704Z,99795.34
2023-01-21T04:49:18.586Z,99787.41
2023-01-21T04:54:22.794Z,99787.34
2023-01-21T04:59:25.746Z,99802.28
2023-01-21T05:04:28.633Z,99796.97
2023-01-21T05:09:32.871Z,99808.97
2023-01-21T05:14:35.826Z,99826.88
2023-01-21T05:19:38.811Z,99810.19
2023-01-21T05:24:43.037Z,99817.38
2023-01-21T05:29:45.921Z,99819.16
2023-01-21T05:34:48.795Z,99825.72
2023-01-21T05:39:53.020Z,99821.47
2023-01-21T05:44:56.660Z,99820.13
2023-01-21T05:49:59.530Z,99821.81
2023-01-21T05:55:04.045Z,99818.81
2023-01-21T06:00:08.674Z,99822.13
2023-01-21T06:05:11.550Z,99825.81
2023-01-21T06:10:16.751Z,99823.38
2023-01-21T06:15:20.450Z,99831.47
2023-01-21T06:20:23.309Z,99830.78
2023-01-21T06:25:27.697Z,99840.13
2023-01-21T06:30:30.725Z,99839.50
2023-01-21T06:35:33.761Z,99835.84
2023-01-21T06:40:37.989Z,99837.44
2023-01-21T06:45:40.957Z,99842.63
2023-01-21T06:50:43.961Z,99840.34
2023-01-21T06:55:48.393Z,99845.66
2023-01-21T07:00:51.246Z,99843.09
2023-01-21T07:05:54.194Z,99851.41
2023-01-21T07:10:58.422Z,99847.91
2023-01-21T07:16:02.009Z,99842.22
2023-01-21T07:21:05.068Z,99844.59
2023-01-21T07:26:09.605Z,99846.31
2023-01-21T07:31:13.824Z,99849.88
2023-01-21T07:36:16.927Z,99855.22
2023-01-21T07:41:21.252Z,99857.53
2023-01-21T07:46:24.402Z,99861.56
2023-01-21T07:51:27.350Z,99859.94
2023-01-21T07:56:31.602Z,99862.66
2023-01-21T08:01:34.707Z,99856.50
2023-01-21T08:06:41.317Z,99861.41
2023-01-21T08:11:45.838Z,99861.94
2023-01-21T08:16:48.747Z,99856.72
2023-01-21T08:21:52.337Z,99857.41
2023-01-21T08:26:58.658Z,99866.94
2023-01-21T08:32:01.589Z,99881.91
2023-01-21T08:37:04.557Z,99870.69
2023-01-21T08:42:08.779Z,99858.06
2023-01-21T08:47:11.805Z,99857.63
2023-01-21T08:52:15.796Z,99865.56
2023-01-21T08:57:20.099Z,99868.13
2023-01-21T09:02:23.120Z,99874.38
2023-01-21T09:07:26.020Z,99865.72
2023-01-21T09:12:30.255Z,99887.44
2023-01-21T09:17:34.215Z,99868.81
2023-01-21T09:22:37.146Z,99876.69
2023-01-21T09:27:41.367Z,99873.88
2023-01-21T09:32:44.249Z,99870.47
2023-01-21T09:37:48.173Z,99879.38
2023-01-21T09:42:52.411Z,99886.91
2023-01-21T09:47:57.743Z,99867.13
2023-01-21T09:53:05.757Z,99864.91
2023-01-21T09:58:21.718Z,99863.41
2023-01-21T10:03:32.815Z,99870.78
2023-01-21T10:08:48.998Z,99869.69
2023-01-21T10:14:05.785Z,99870.19
2023-01-21T10:19:14.899Z,99861.78
2023-01-21T10:24:22.176Z,99855.13
2023-01-21T10:29:27.294Z,99863.34
2023-01-21T10:34:32.369Z,99851.72
2023-01-21T10:39:45.248Z,99847.06
2023-01-21T10:44:58.004Z,99840.84
2023-01-21T10:50:05.348Z,99839.34
2023-01-21T10:55:25.298Z,99832.81
2023-01-21T11:00:33.957Z,99826.59
2023-01-21T11:05:39.102Z,99826.59
2023-01-21T11:10:42.086Z,99829.53
2023-01-21T11:15:51.401Z,99815.59
2023-01-21T11:20:58.211Z,99812.44
2023-01-21T11:26:08.765Z,99818.41
2023-01-21T11:31:16.263Z,99810.47
2023-01-21T11:36:21.067Z,99801.53
2023-01-21T11:41:25.090Z,99791.72
2023-01-21T11:46:36.734Z,99774.22
2023-01-21T11:51:42.237Z,99772.63
2023-01-21T11:56:55.659Z,99773.91
2023-01-21T12:02:06.650Z,99761.41
2023-01-21T12:07:19.726Z,99757.28
2023-01-21T12:12:35.926Z,99767.09
2023-01-21T12:17:52.042Z,99758.72
2023-01-21T12:23:07.976Z,99757.84
2023-01-21T12:28:47.455Z,99761.50
2023-01-21T12:33:59.065Z,99761.03
2023-01-21T12:39:19.618Z,99756.78
2023-01-21T12:44:32.689Z,99745.44
2023-01-21T12:49:56.455Z,99740.41
2023-01-21T12:55:06.194Z,99721.97
2023-01-21T13:00:18.461Z,99719.50
2023-01-21T13:05:31.192Z,99711.00
2023-01-21T13:10:38.284Z,99716.19
2023-01-21T13:15:44.660Z,99697.53
2023-01-21T13:20:53.765Z,99683.25
2023-01-21T13:26:04.266Z,99668.72
2023-01-21T13:31:13.416Z,99656.38
2023-01-21T13:36:33.528Z,99651.03
2023-01-21T13:41:50.686Z,99655.81
2023-01-21T13:47:04.990Z,99659.19
2023-01-21T13:52:15.999Z,99654.78
2023-01-21T13:57:45.792Z,99671.88
2023-01-21T14:02:56.959Z,99659.41
2023-01-21T14:08:07.168Z,99633.69
2023-01-21T14:13:39.893Z,99640.88
2023-01-21T14:18:58.822Z,99624.56
2023-01-21T14:24:19.344Z,99638.63
2023-01-21T14:29:30.854Z,99634.78
2023-01-21T14:34:42.124Z,99624.38
2023-01-21T14:39:59.643Z,99624.38
2023-01-21T14:45:06.088Z,99624.88
2023-01-21T14:50:10.245Z,99621.72
2023-01-21T14:55:28.732Z,99621.22
2023-01-21T15:00:33.860Z,99614.44
2023-01-21T15:05:38.099Z,99608.81
2023-01-21T15:10:42.608Z,99603.00
2023-01-21T15:16:05.384Z,99616.47
2023-01-21T15:21:36.347Z,99604.84
2023-01-21T15:26:42.323Z,99612.81
2023-01-21T15:31:46.125Z,99613.44
2023-01-21T15:36:53.319Z,99608.16
2023-01-21T15:42:15.979Z,99606.16
2023-01-21T15:47:50.694Z,99613.31
2023-01-21T15:53:21.378Z,99600.44
2023-01-21T15:58:38.950Z,99594.59
2023-01-21T16:03:47.647Z,99587.88
2023-01-21T16:09:03.060Z,99596.59
2023-01-21T16:14:18.796Z,99590.06
2023-01-21T16:19:24.021Z,99593.84
2023-01-21T16:24:29.967Z,99592.22
2023-01-21T16:29:39.368Z,99588.88
2023-01-21T16:34:44.063Z,99580.88
2023-01-21T16:39:47.035Z,99578.69
2023-01-21T16:44:52.032Z,99591.94
2023-01-21T16:49:54.913Z,99574.88
2023-01-21T16:54:57.846Z,99588.44
2023-01-21T17:00:02.773Z,99580.13
2023-01-21T17:05:07.013Z,99587.75
2023-01-21T17:10:21.547Z,99587.38
2023-01-21T17:15:32.113Z,99586.03
2023-01-21T17:20:42.299Z,99588.00
2023-01-21T17:25:49.926Z,99596.69
2023-01-21T17:31:09.753Z,99598.69
2023-01-21T17:36:14.241Z,99598.22
2023-01-21T17:41:25.710Z,99600.69
2023-01-21T17:46:30.854Z,99592.81
2023-01-21T17:51:35.141Z,99597.97
2023-01-21T17:56:40.336Z,99611.75
2023-01-21T18:01:44.628Z,99615.69
2023-01-21T18:06:47.540Z,99619.59
2023-01-21T18:11:52.928Z,99617.22
2023-01-21T18:16:57.220Z,99618.41
2023-01-21T18:22:00.968Z,99628.72
2023-01-21T18:27:04.146Z,99614.34
2023-01-21T18:32:11.668Z,99621.03
2023-01-21T18:37:16.656Z,99619.66
2023-01-21T18:42:19.614Z,99627.25
2023-01-21T18:47:23.856Z,99624.94
2023-01-21T18:52:26.834Z,99618.34
2023-01-21T18:57:29.757Z,99623.41
2023-01-21T19:02:34.091Z,99618.25
2023-01-21T19:07:37.132Z,99621.59
2023-01-21T19:12:40.106Z,99621.97
2023-01-21T19:17:45.932Z,99620.44
2023-01-21T19:22:49.727Z,99624.13
2023-01-21T19:27:55.430Z,99621.66
2023-01-21T19:33:01.753Z,99616.28
2023-01-21T19:38:10.950Z,99620.28
2023-01-21T19:43:14.489Z,99632.94
2023-01-21T19:48:20.892Z,99635.63
2023-01-21T19:53:24.071Z,99655.28
2023-01-21T19:58:29.617Z,99657.81
2023-01-21T20:03:33.895Z,99655.06
2023-01-21T20:08:36.774Z,99660.00
2023-01-21T20:13:39.722Z,99671.69
2023-01-21T20:18:46.205Z,99677.34
2023-01-21T20:23:49.124Z,99682.25
2023-01-21T20:28:54.519Z,99694.25
2023-01-21T20:33:58.934Z,99684.56
2023-01-21T20:39:01.845Z,99689.09
2023-01-21T20:44:04.858Z,99700.41
2023-01-21T20:49:12.233Z,99702.19
2023-01-21T20:54:15.134Z,99704.25
2023-01-21T20:59:18.427Z,99721.56
2023-01-21T21:04:24.843Z,99718.66
2023-01-21T21:09:27.807Z,99721.41
2023-01-21T21:14:30.718Z,99724.81
2023-01-21T21:19:34.914Z,99736.25
2023-01-21T21:24:37.825Z,99732.63
2023-01-21T21:29:40.749Z,99735.38
2023-01-21T21:34:45.001Z,99736.06
2023-01-21T21:39:47.862Z,99742.84
2023-01-21T21:44:50.778Z,99740.97
2023-01-21T21:49:55.070Z,99747.25
2023-01-21T21:54:57.954Z,99747.91
2023-01-21T22:00:00.867Z,99754.25
2023-01-21T22:05:05.621Z,99757.28
2023-01-21T22:10:09.680Z,99750.78
2023-01-21T22:15:12.845Z,99743.88
2023-01-21T22:20:17.164Z,99755.81
2023-01-21T22:25:20.496Z,99755.72
2023-01-21T22:30:25.131Z,99759.81
2023-01-21T22:35:29.460Z,99754.75
2023-01-21T22:40:33.999Z,99764.53
2023-01-21T22:45:37.031Z,99782.28
2023-01-21T22:50:44.424Z,99782.03
2023-01-21T22:55:53.990Z,99785.94
2023-01-21T23:00:57.650Z,99785.63
2023-01-21T23:06:06.464Z,99785.44
2023-01-21T23:11:11.544Z,99784.56
2023-01-21T23:16:17.223Z,99790.66
2023-01-21T23:21:23.236Z,99792.72
2023-01-21T23:26:26.126Z,99792.59
2023-01-21T23:31:29.146Z,99787.38
2023-01-21T23:36:33.543Z,99792.03
2023-01-21T23:41:36.421Z,99792.53
2023-01-21T23:46:39.450Z,99795.94
2023-01-21T23:51:43.696Z,99801.53
2023-01-21T23:56:46.587Z,99806.97
